Time;durP1;ratioP1;P1;durP2;ratioP2;P2;SDS_P1;SDS_P2;PMS_P1;PMS_P2;Temp;Humidity;BMP_temperature;BMP_pressure;BME280_temperature;BME280_humidity;BME280_pressure;Samples;Min_cycle;Max_cycle;Signal;HPM_P1;HPM_P2
2023/06/04 00:01:51;;;;;;;8.73;3.58;;;14.60;69.50;;;;;;5028911;28;20147;-75
2023/06/04 00:04:17;;;;;;;8.27;4.03;;;14.60;69.60;;;;;;5039660;28;20037;-75
2023/06/04 00:06:43;;;;;;;10.50;4.03;;;14.60;69.70;;;;;;5039590;28;20525;-74
2023/06/04 00:09:09;;;;;;;8.52;3.78;;;14.50;69.90;;;;;;5043040;28;20029;-75
2023/06/04 00:11:36;;;;;;;9.98;4.53;;;14.40;70.00;;;;;;5045027;28;20032;-75
2023/06/04 00:14:02;;;;;;;9.35;3.63;;;14.40;70.20;;;;;;5041183;28;20102;-75
2023/06/04 00:16:28;;;;;;;12.93;5.38;;;14.40;70.40;;;;;;5035213;28;20041;-77
2023/06/04 00:18:53;;;;;;;10.10;4.00;;;14.40;70.20;;;;;;5037501;28;20037;-75
2023/06/04 00:21:19;;;;;;;9.00;4.30;;;14.40;70.40;;;;;;5042726;28;20096;-75
2023/06/04 00:23:45;;;;;;;10.52;4.68;;;14.30;70.40;;;;;;5043610;28;20037;-75
2023/06/04 00:26:11;;;;;;;11.13;4.63;;;14.30;70.60;;;;;;5043002;28;20040;-75
2023/06/04 00:28:36;;;;;;;9.95;3.83;;;14.30;70.60;;;;;;5040109;28;20017;-75
2023/06/04 00:31:05;;;;;;;9.52;4.30;;;14.20;70.80;;;;;;5039044;28;20072;-75
2023/06/04 00:33:31;;;;;;;9.18;4.20;;;14.10;70.90;;;;;;5037297;28;20557;-75
2023/06/04 00:35:57;;;;;;;8.00;3.40;;;14.20;71.10;;;;;;5039956;28;20088;-77
2023/06/04 00:38:23;;;;;;;7.28;3.72;;;14.10;71.30;;;;;;5042643;28;20028;-76
2023/06/04 00:40:49;;;;;;;8.45;3.90;;;14.10;71.40;;;;;;5037850;28;20021;-75
2023/06/04 00:43:15;;;;;;;6.40;3.60;;;14.10;71.60;;;;;;5030998;28;20545;-77
2023/06/04 00:45:41;;;;;;;7.38;3.78;;;14.10;71.60;;;;;;5042547;28;20094;-76
2023/06/04 00:48:07;;;;;;;7.57;3.83;;;14.00;71.70;;;;;;5037842;28;20051;-75
2023/06/04 00:50:35;;;;;;;9.30;4.22;;;14.00;71.90;;;;;;5038880;28;20025;-75
2023/06/04 00:53:01;;;;;;;8.20;3.97;;;13.90;72.20;;;;;;5037528;28;20510;-75
2023/06/04 00:55:26;;;;;;;11.15;3.95;;;13.90;72.30;;;;;;5041816;28;20082;-76
2023/06/04 00:57:52;;;;;;;8.98;3.92;;;13.90;72.50;;;;;;5034006;28;20132;-75
2023/06/04 01:00:19;;;;;;;7.70;3.38;;;13.90;72.70;;;;;;5036473;28;20075;-75
2023/06/04 01:02:51;;;;;;;9.50;3.83;;;13.80;72.90;;;;;;5034738;28;20041;-75
2023/06/04 01:05:40;;;;;;;8.48;4.20;;;13.70;73.00;;;;;;5039650;28;20025;-75
2023/06/04 01:08:08;;;;;;;8.73;4.47;;;13.70;73.30;;;;;;5034867;28;20112;-75
2023/06/04 01:10:37;;;;;;;10.20;4.10;;;13.60;73.50;;;;;;5042954;28;20029;-75
2023/06/04 01:13:03;;;;;;;10.80;4.05;;;13.60;73.50;;;;;;5039560;28;20059;-75
2023/06/04 01:15:28;;;;;;;11.40;4.40;;;13.60;73.90;;;;;;5044868;28;20029;-75
2023/06/04 01:18:02;;;;;;;10.32;4.90;;;13.60;73.90;;;;;;5048083;28;20045;-76
2023/06/04 01:20:44;;;;;;;9.70;4.05;;;13.60;74.00;;;;;;5042550;28;20021;-75
2023/06/04 01:23:33;;;;;;;9.20;4.47;;;13.50;74.20;;;;;;5048536;28;20437;-75
2023/06/04 01:26:02;;;;;;;12.90;4.63;;;13.50;74.40;;;;;;5034818;28;20556;-75
2023/06/04 01:28:29;;;;;;;9.27;4.72;;;13.40;74.70;;;;;;5043439;28;20060;-75
2023/06/04 01:30:56;;;;;;;9.00;4.47;;;13.40;74.70;;;;;;5035924;28;20113;-75
2023/06/04 01:33:22;;;;;;;8.00;4.10;;;13.40;74.70;;;;;;5044359;28;20021;-75
2023/06/04 01:35:49;;;;;;;13.00;5.20;;;13.30;74.80;;;;;;5040495;28;20428;-75
2023/06/04 01:38:15;;;;;;;10.98;5.00;;;13.30;74.90;;;;;;5039477;28;20017;-75
2023/06/04 01:40:41;;;;;;;9.73;4.22;;;13.30;75.10;;;;;;5036034;28;20052;-75
2023/06/04 01:43:07;;;;;;;10.13;4.68;;;13.30;75.00;;;;;;5045706;28;20040;-76
2023/06/04 01:45:33;;;;;;;8.45;4.25;;;13.30;75.10;;;;;;5045018;28;20480;-74
2023/06/04 01:48:01;;;;;;;7.10;4.30;;;13.40;75.00;;;;;;5042925;28;20036;-75
2023/06/04 01:50:27;;;;;;;9.32;4.93;;;13.30;75.00;;;;;;5045138;28;20033;-75
2023/06/04 01:52:53;;;;;;;7.78;4.45;;;13.20;75.30;;;;;;5042392;28;20115;-75
2023/06/04 01:55:19;;;;;;;10.05;4.30;;;13.20;75.20;;;;;;5044745;28;20035;-74
2023/06/04 01:57:47;;;;;;;11.27;4.63;;;13.20;75.20;;;;;;5038811;28;20067;-75
2023/06/04 02:00:13;;;;;;;10.80;4.43;;;13.20;75.00;;;;;;5040989;28;20083;-75
2023/06/04 02:02:43;;;;;;;7.97;4.47;;;13.20;75.20;;;;;;5046014;28;20037;-74
2023/06/04 02:05:09;;;;;;;10.38;4.63;;;13.20;75.20;;;;;;5043141;28;20032;-75
2023/06/04 02:07:38;;;;;;;8.75;4.60;;;13.10;75.30;;;;;;5038712;28;20063;-75
2023/06/04 02:10:05;;;;;;;9.85;4.97;;;13.10;75.20;;;;;;5040435;28;20591;-74
2023/06/04 02:12:31;;;;;;;10.75;4.30;;;13.10;75.30;;;;;;5037288;28;20065;-74
2023/06/04 02:14:57;;;;;;;11.40;4.30;;;13.10;75.40;;;;;;5046835;28;20017;-74
2023/06/04 02:17:22;;;;;;;10.35;5.05;;;13.10;75.20;;;;;;5043896;28;20037;-74
2023/06/04 02:19:49;;;;;;;8.60;4.35;;;13.10;75.20;;;;;;5037591;28;20091;-74
2023/06/04 02:22:19;;;;;;;8.82;4.30;;;13.10;75.30;;;;;;5047425;28;20041;-75
2023/06/04 02:24:45;;;;;;;10.18;4.78;;;13.00;75.40;;;;;;5034114;28;20109;-75
2023/06/04 02:27:12;;;;;;;8.55;4.60;;;13.10;75.10;;;;;;5036519;28;20037;-74
2023/06/04 02:29:41;;;;;;;11.70;4.80;;;13.10;75.00;;;;;;5042187;28;20366;-74
2023/06/04 02:32:08;;;;;;;10.88;4.80;;;13.10;75.20;;;;;;5043436;28;20124;-74
2023/06/04 02:34:34;;;;;;;10.15;4.57;;;13.00;75.10;;;;;;5040499;28;20026;-73
2023/06/04 02:37:00;;;;;;;8.73;4.60;;;13.00;75.20;;;;;;5044978;28;20021;-75
2023/06/04 02:39:26;;;;;;;7.65;4.70;;;13.00;75.30;;;;;;5038962;28;20029;-74
2023/06/04 02:41:52;;;;;;;8.13;4.60;;;13.00;75.20;;;;;;5040879;28;20029;-74
2023/06/04 02:44:17;;;;;;;9.05;4.78;;;12.90;75.30;;;;;;5044224;28;20086;-74
2023/06/04 02:46:44;;;;;;;11.20;4.80;;;12.90;75.30;;;;;;5045351;28;20029;-75
2023/06/04 02:49:13;;;;;;;9.10;4.88;;;12.90;75.50;;;;;;5044231;28;20461;-74
2023/06/04 02:51:40;;;;;;;12.05;5.07;;;12.80;75.30;;;;;;5040902;28;20471;-74
2023/06/04 02:54:06;;;;;;;9.93;4.70;;;12.80;75.20;;;;;;5038581;28;20040;-76
2023/06/04 02:56:33;;;;;;;10.18;5.60;;;12.80;75.30;;;;;;5034843;28;20381;-74
2023/06/04 02:58:58;;;;;;;10.30;5.10;;;12.80;75.40;;;;;;5039194;28;20409;-74
2023/06/04 03:01:25;;;;;;;9.45;4.80;;;12.80;75.40;;;;;;5038727;28;20021;-75
2023/06/04 03:03:52;;;;;;;10.07;5.43;;;12.80;75.40;;;;;;5041346;28;20378;-74
2023/06/04 03:06:22;;;;;;;11.07;5.22;;;12.70;75.30;;;;;;5044994;28;20045;-74
2023/06/04 03:08:51;;;;;;;9.15;4.28;;;12.80;75.40;;;;;;5043922;28;20025;-74
2023/06/04 03:11:20;;;;;;;11.65;4.97;;;12.70;75.30;;;;;;5032831;28;20033;-75
2023/06/04 03:13:47;;;;;;;10.18;4.90;;;12.80;75.30;;;;;;5045608;28;20563;-74
2023/06/04 03:16:12;;;;;;;9.13;4.70;;;12.70;75.30;;;;;;5040876;28;20071;-75
2023/06/04 03:18:40;;;;;;;11.35;4.65;;;12.70;75.30;;;;;;5039504;28;20064;-76
2023/06/04 03:21:06;;;;;;;10.15;5.20;;;12.70;75.30;;;;;;5043617;28;20041;-74
2023/06/04 03:23:33;;;;;;;8.95;5.10;;;12.70;75.30;;;;;;5042411;28;20021;-74
2023/06/04 03:26:01;;;;;;;9.82;4.93;;;12.70;75.30;;;;;;5041545;28;20067;-74
2023/06/04 03:28:26;;;;;;;9.27;5.55;;;12.60;75.30;;;;;;5038426;28;20033;-75
2023/06/04 03:30:52;;;;;;;9.15;4.95;;;12.70;75.40;;;;;;5041652;28;20119;-74
2023/06/04 03:33:18;;;;;;;14.63;5.18;;;12.60;75.30;;;;;;5042213;28;20024;-74
2023/06/04 03:35:43;;;;;;;8.20;4.68;;;12.70;75.40;;;;;;5038115;28;20067;-74
2023/06/04 03:38:10;;;;;;;9.43;5.20;;;12.60;75.40;;;;;;5044840;28;20037;-75
2023/06/04 03:40:35;;;;;;;10.90;5.22;;;12.60;75.40;;;;;;5038624;28;20029;-74
2023/06/04 03:43:03;;;;;;;10.65;5.20;;;12.60;75.40;;;;;;5042044;28;20098;-74
2023/06/04 03:45:29;;;;;;;9.38;4.95;;;12.60;75.50;;;;;;5042112;28;20116;-76
2023/06/04 03:47:55;;;;;;;12.02;5.13;;;12.60;75.50;;;;;;5035911;28;20549;-74
2023/06/04 03:50:21;;;;;;;9.27;5.75;;;12.50;75.60;;;;;;5037213;28;20029;-76
2023/06/04 03:52:50;;;;;;;9.07;4.90;;;12.60;75.60;;;;;;5038860;28;20112;-74
2023/06/04 03:55:15;;;;;;;9.93;5.35;;;12.60;75.70;;;;;;5035535;28;20486;-74
2023/06/04 03:57:41;;;;;;;10.10;5.03;;;12.50;75.80;;;;;;5040205;28;20043;-74
2023/06/04 04:00:11;;;;;;;9.93;4.78;;;12.50;75.80;;;;;;5032323;28;20029;-75
2023/06/04 04:02:38;;;;;;;9.63;5.07;;;12.50;75.70;;;;;;5041500;28;20041;-74
2023/06/04 04:05:04;;;;;;;10.55;5.05;;;12.50;75.80;;;;;;5037848;28;20054;-74
2023/06/04 04:07:29;;;;;;;8.73;5.00;;;12.60;75.70;;;;;;5034345;28;20457;-74
2023/06/04 04:09:55;;;;;;;8.80;4.65;;;12.60;75.60;;;;;;5040417;28;20025;-74
2023/06/04 04:12:21;;;;;;;8.93;4.85;;;12.60;75.70;;;;;;5042386;28;20059;-74
2023/06/04 04:14:47;;;;;;;10.10;5.30;;;12.60;75.70;;;;;;5039036;28;20029;-74
2023/06/04 04:17:13;;;;;;;10.75;4.93;;;12.60;75.70;;;;;;5033476;28;20033;-74
2023/06/04 04:19:39;;;;;;;9.35;5.40;;;12.60;75.60;;;;;;5037081;28;20453;-74
2023/06/04 04:22:06;;;;;;;9.50;5.13;;;12.60;75.60;;;;;;5040116;28;20361;-75
2023/06/04 04:24:34;;;;;;;9.57;4.60;;;12.60;75.50;;;;;;5039518;28;20465;-74
2023/06/04 04:27:00;;;;;;;12.30;4.93;;;12.60;75.30;;;;;;5033689;28;20021;-74
2023/06/04 04:29:27;;;;;;;9.32;5.00;;;12.70;75.30;;;;;;5044327;28;20025;-74
2023/06/04 04:31:56;;;;;;;10.48;5.57;;;12.70;75.20;;;;;;5035421;28;20037;-74
2023/06/04 04:34:23;;;;;;;10.60;4.90;;;12.60;75.20;;;;;;5037799;28;20067;-73
2023/06/04 04:36:52;;;;;;;10.20;5.15;;;12.70;75.20;;;;;;5038385;28;20025;-73
2023/06/04 04:39:24;;;;;;;10.60;5.25;;;12.70;75.00;;;;;;5041083;28;20437;-74
2023/06/04 04:41:50;;;;;;;11.00;4.90;;;12.70;75.10;;;;;;5030597;28;20068;-74
2023/06/04 04:44:15;;;;;;;10.00;4.90;;;12.70;75.10;;;;;;5040710;28;20025;-74
2023/06/04 04:46:41;;;;;;;14.25;5.30;;;12.80;75.20;;;;;;5037984;28;20045;-74
2023/06/04 04:49:07;;;;;;;9.07;4.63;;;12.90;75.00;;;;;;5037286;28;20024;-74
2023/06/04 04:51:33;;;;;;;9.57;5.10;;;12.90;74.90;;;;;;5033665;28;20819;-73
2023/06/04 04:54:00;;;;;;;10.55;5.30;;;13.00;74.80;;;;;;5033750;28;20465;-74
2023/06/04 04:56:26;;;;;;;10.18;4.85;;;13.10;74.60;;;;;;5037956;28;20464;-76
2023/06/04 04:58:53;;;;;;;12.23;5.30;;;13.00;74.30;;;;;;5041832;28;20032;-73
2023/06/04 05:01:19;;;;;;;9.40;5.10;;;13.10;74.40;;;;;;5038256;28;20073;-75
2023/06/04 05:03:44;;;;;;;8.88;4.93;;;13.10;74.40;;;;;;5043111;28;20364;-73
2023/06/04 05:06:10;;;;;;;9.65;4.82;;;13.20;74.20;;;;;;5041145;28;20121;-73
2023/06/04 05:08:36;;;;;;;7.57;4.55;;;13.20;74.10;;;;;;5036107;28;20147;-73
2023/06/04 05:11:02;;;;;;;9.98;5.03;;;13.30;74.30;;;;;;5034869;28;20030;-73
2023/06/04 05:13:28;;;;;;;9.43;4.47;;;14.10;73.30;;;;;;5042782;28;20397;-74
2023/06/04 05:15:53;;;;;;;8.38;4.30;;;15.70;69.00;;;;;;5040685;28;20028;-75
2023/06/04 05:18:28;;;;;;;9.73;3.80;;;16.90;62.90;;;;;;5049116;28;20078;-74
2023/06/04 05:20:57;;;;;;;12.85;4.20;;;18.10;59.50;;;;;;5036528;28;20034;-74
2023/06/04 05:23:24;;;;;;;10.23;4.20;;;18.60;55.90;;;;;;5042817;28;20044;-73
2023/06/04 05:25:50;;;;;;;9.23;4.13;;;19.20;55.70;;;;;;5036793;28;20503;-73
2023/06/04 05:28:15;;;;;;;7.80;3.67;;;19.90;52.70;;;;;;5043208;28;20020;-74
2023/06/04 05:30:41;;;;;;;11.32;4.03;;;19.90;52.10;;;;;;5036958;28;20029;-74
2023/06/04 05:33:17;;;;;;;8.20;3.90;;;20.10;52.30;;;;;;5043891;28;20040;-74
2023/06/04 05:35:48;;;;;;;9.57;4.05;;;20.40;50.80;;;;;;5047362;28;20017;-73
2023/06/04 05:38:18;;;;;;;10.38;4.60;;;20.60;50.60;;;;;;5043193;28;20029;-73
2023/06/04 05:40:45;;;;;;;10.55;4.50;;;21.20;49.00;;;;;;5044614;28;20213;-74
2023/06/04 05:43:11;;;;;;;7.88;4.20;;;21.10;48.20;;;;;;5045193;28;20457;-74
2023/06/04 05:45:37;;;;;;;8.85;3.97;;;20.90;49.20;;;;;;5041098;28;20550;-74
2023/06/04 05:48:03;;;;;;;12.07;4.75;;;20.40;49.90;;;;;;5037862;28;20044;-74
2023/06/04 05:50:30;;;;;;;9.30;4.30;;;20.00;51.20;;;;;;5047151;28;20546;-74
2023/06/04 05:52:56;;;;;;;8.15;4.07;;;19.90;51.00;;;;;;5043237;28;20047;-74
2023/06/04 05:55:22;;;;;;;7.57;4.45;;;19.40;51.20;;;;;;5042916;28;20151;-75
2023/06/04 05:57:48;;;;;;;8.95;4.65;;;18.50;54.00;;;;;;5043086;28;20060;-74
2023/06/04 06:00:15;;;;;;;8.40;4.80;;;17.70;56.50;;;;;;5045287;28;20465;-75
2023/06/04 06:02:40;;;;;;;8.57;4.57;;;17.00;58.50;;;;;;5037816;28;20088;-74
2023/06/04 06:05:09;;;;;;;9.18;4.15;;;16.60;59.90;;;;;;5047478;28;20036;-74
2023/06/04 06:07:35;;;;;;;8.63;4.40;;;16.40;60.60;;;;;;5034124;28;20038;-74
2023/06/04 06:10:02;;;;;;;8.60;4.25;;;16.00;61.20;;;;;;5047149;28;20102;-74
2023/06/04 06:12:28;;;;;;;8.98;4.65;;;15.70;62.20;;;;;;5047486;28;20053;-74
2023/06/04 06:14:53;;;;;;;10.15;4.70;;;15.80;62.40;;;;;;5042237;28;20033;-76
2023/06/04 06:17:19;;;;;;;10.73;5.10;;;15.80;62.20;;;;;;5046741;28;20090;-75
2023/06/04 06:19:45;;;;;;;9.00;4.65;;;16.00;62.10;;;;;;5046525;28;20539;-75
2023/06/04 06:22:11;;;;;;;9.18;4.32;;;16.20;62.30;;;;;;5046510;28;20045;-74
2023/06/04 06:24:37;;;;;;;8.77;4.20;;;16.10;61.10;;;;;;5043411;28;20037;-74
2023/06/04 06:27:03;;;;;;;9.73;4.22;;;16.40;60.40;;;;;;5046185;28;20808;-74
2023/06/04 06:29:28;;;;;;;8.68;4.35;;;16.50;59.70;;;;;;5046304;28;20103;-75
2023/06/04 06:31:54;;;;;;;8.00;4.20;;;16.50;59.90;;;;;;5038637;28;20375;-74
2023/06/04 06:34:20;;;;;;;8.98;4.22;;;16.70;59.20;;;;;;5044104;28;20104;-74
2023/06/04 06:36:46;;;;;;;9.68;4.18;;;16.80;58.80;;;;;;5041034;28;20434;-75
2023/06/04 06:39:12;;;;;;;7.57;4.03;;;16.90;58.50;;;;;;5044566;28;20112;-75
2023/06/04 06:41:38;;;;;;;8.70;4.72;;;17.10;59.00;;;;;;5039175;28;20112;-74
2023/06/04 06:44:04;;;;;;;7.55;4.13;;;17.10;58.70;;;;;;5043192;28;20469;-75
2023/06/04 06:46:30;;;;;;;10.45;4.63;;;17.00;58.30;;;;;;5041121;28;20037;-74
2023/06/04 06:48:56;;;;;;;8.40;3.83;;;17.10;57.80;;;;;;5043696;28;20021;-74
2023/06/04 06:51:22;;;;;;;11.30;4.40;;;17.30;57.80;;;;;;5043817;28;20041;-74
2023/06/04 06:53:50;;;;;;;7.50;4.05;;;17.50;56.50;;;;;;5043723;28;20032;-74
2023/06/04 06:56:15;;;;;;;8.35;3.92;;;17.60;55.40;;;;;;5044265;28;20385;-75
2023/06/04 06:58:41;;;;;;;8.23;3.70;;;17.60;56.20;;;;;;5043007;28;20024;-75
2023/06/04 07:01:07;;;;;;;8.20;3.90;;;17.60;55.20;;;;;;5045136;28;20033;-75
2023/06/04 07:03:32;;;;;;;8.32;4.30;;;17.70;56.10;;;;;;5046724;28;20037;-74
2023/06/04 07:05:58;;;;;;;8.40;4.15;;;17.90;55.10;;;;;;5044217;28;20033;-74
2023/06/04 07:08:23;;;;;;;7.05;3.70;;;18.10;54.10;;;;;;5047728;28;20037;-75
2023/06/04 07:10:49;;;;;;;7.80;3.92;;;18.30;53.70;;;;;;5037055;28;20057;-74
2023/06/04 07:13:16;;;;;;;10.05;3.88;;;18.20;53.50;;;;;;5038132;28;20053;-75
2023/06/04 07:15:41;;;;;;;8.65;3.72;;;18.20;52.90;;;;;;5037844;28;20021;-75
2023/06/04 07:18:07;;;;;;;7.13;3.72;;;18.30;52.70;;;;;;5040513;28;20040;-75
2023/06/04 07:20:33;;;;;;;6.90;3.78;;;18.50;52.30;;;;;;5042470;28;20309;-74
2023/06/04 07:22:59;;;;;;;7.30;3.28;;;18.10;51.80;;;;;;5040779;28;20114;-74
2023/06/04 07:25:25;;;;;;;10.50;3.67;;;18.40;52.50;;;;;;5037041;28;20033;-74
2023/06/04 07:27:51;;;;;;;8.85;3.47;;;18.70;51.00;;;;;;5037985;28;20030;-73
2023/06/04 07:30:18;;;;;;;5.93;2.88;;;18.90;50.60;;;;;;5038034;28;20032;-74
2023/06/04 07:32:50;;;;;;;5.97;3.30;;;19.10;49.00;;;;;;5040899;28;20048;-74
2023/06/04 07:35:16;;;;;;;5.93;3.05;;;19.00;48.80;;;;;;5037657;28;20378;-74
2023/06/04 07:37:44;;;;;;;6.45;3.08;;;19.10;48.40;;;;;;5035910;28;20432;-74
2023/06/04 07:40:11;;;;;;;7.85;2.92;;;19.20;47.90;;;;;;5046174;28;20039;-74
2023/06/04 07:42:37;;;;;;;7.65;3.55;;;19.40;47.20;;;;;;5039955;28;20152;-76
2023/06/04 07:45:03;;;;;;;8.85;3.05;;;19.30;47.30;;;;;;5038974;28;20732;-76
2023/06/04 07:47:29;;;;;;;7.00;2.78;;;19.20;47.50;;;;;;5038777;28;20071;-75
2023/06/04 07:49:55;;;;;;;6.25;3.20;;;19.40;46.80;;;;;;5039662;28;20033;-74
2023/06/04 07:52:20;;;;;;;5.78;3.13;;;19.50;46.40;;;;;;5035081;28;20045;-75
2023/06/04 07:54:46;;;;;;;6.28;3.17;;;19.40;45.90;;;;;;5044217;28;20025;-74
2023/06/04 07:57:12;;;;;;;6.25;3.08;;;19.40;45.30;;;;;;5044873;28;20033;-75
2023/06/04 07:59:38;;;;;;;5.68;3.00;;;19.50;46.00;;;;;;5033857;28;20060;-74
2023/06/04 08:02:04;;;;;;;6.78;3.28;;;19.80;45.80;;;;;;5033069;28;20550;-74
2023/06/04 08:04:31;;;;;;;6.68;2.78;;;19.80;44.40;;;;;;5036998;28;20051;-75
2023/06/04 08:06:57;;;;;;;7.07;2.67;;;20.00;45.00;;;;;;5042784;28;20044;-75
2023/06/04 08:09:22;;;;;;;5.88;2.92;;;19.80;45.20;;;;;;5036042;28;20021;-75
2023/06/04 08:11:49;;;;;;;8.20;2.85;;;19.80;44.50;;;;;;5032675;28;20033;-76
2023/06/04 08:14:14;;;;;;;6.43;2.92;;;20.20;44.40;;;;;;5038255;28;20038;-75
2023/06/04 08:16:40;;;;;;;6.80;2.88;;;20.30;43.70;;;;;;5039532;28;20106;-74
2023/06/04 08:19:07;;;;;;;6.32;2.63;;;20.20;43.70;;;;;;5042639;28;20480;-75
2023/06/04 08:21:33;;;;;;;7.05;2.53;;;20.20;43.00;;;;;;5033509;28;20063;-74
2023/06/04 08:23:59;;;;;;;5.80;2.80;;;20.60;42.30;;;;;;5036514;28;20071;-73
2023/06/04 08:26:26;;;;;;;6.97;2.70;;;20.70;42.20;;;;;;5039979;28;20374;-74
2023/06/04 08:28:53;;;;;;;4.80;2.60;;;20.90;42.00;;;;;;5037825;28;20434;-74
2023/06/04 08:31:19;;;;;;;6.40;2.78;;;21.10;41.00;;;;;;5036668;28;20034;-74
2023/06/04 08:33:47;;;;;;;5.18;2.33;;;21.20;41.10;;;;;;5045716;28;20051;-74
2023/06/04 08:36:13;;;;;;;6.93;2.60;;;21.50;41.10;;;;;;5037678;28;20033;-76
2023/06/04 08:38:39;;;;;;;6.07;2.10;;;21.70;39.10;;;;;;5042029;28;20028;-74
2023/06/04 08:41:15;;;;;;;5.32;2.38;;;22.10;39.30;;;;;;5037107;28;20526;-75
2023/06/04 08:43:43;;;;;;;5.28;2.40;;;21.90;38.80;;;;;;5037395;28;20030;-74
2023/06/04 08:46:10;;;;;;;6.47;2.58;;;21.40;37.90;;;;;;5041729;28;20131;-75
2023/06/04 08:48:37;;;;;;;5.07;2.38;;;21.60;39.50;;;;;;5041875;28;20036;-73
2023/06/04 08:51:07;;;;;;;5.10;2.78;;;21.80;38.80;;;;;;5039123;28;20036;-78
2023/06/04 08:53:33;;;;;;;6.22;2.35;;;21.60;39.40;;;;;;5037827;28;20022;-77
2023/06/04 08:55:59;;;;;;;4.40;2.03;;;22.10;38.80;;;;;;5037776;28;20036;-78
2023/06/04 08:58:26;;;;;;;5.05;2.10;;;22.40;35.70;;;;;;5039332;28;20033;-76
2023/06/04 09:00:51;;;;;;;5.47;2.22;;;22.60;35.40;;;;;;5038415;28;20032;-76
2023/06/04 09:03:19;;;;;;;5.80;2.10;;;22.40;36.50;;;;;;5034893;28;20044;-77
2023/06/04 09:05:49;;;;;;;4.68;2.15;;;21.90;34.60;;;;;;5039538;28;20032;-77
2023/06/04 09:08:18;;;;;;;5.53;2.20;;;21.90;34.90;;;;;;5039418;28;20028;-76
2023/06/04 09:10:46;;;;;;;4.22;1.80;;;22.00;34.30;;;;;;5039592;28;20602;-77
2023/06/04 09:13:13;;;;;;;5.22;2.00;;;22.20;34.70;;;;;;5032792;28;20087;-77
2023/06/04 09:15:38;;;;;;;5.75;2.22;;;22.10;33.50;;;;;;5030760;28;20120;-77
2023/06/04 09:18:04;;;;;;;5.53;2.10;;;22.50;34.80;;;;;;5037603;28;20112;-75
2023/06/04 09:20:32;;;;;;;4.63;1.80;;;22.80;33.90;;;;;;5029287;28;20458;-75
2023/06/04 09:22:58;;;;;;;7.50;1.95;;;22.80;33.10;;;;;;5034386;28;20087;-75
2023/06/04 09:25:26;;;;;;;4.95;1.80;;;22.60;31.80;;;;;;5041019;28;20037;-76
2023/06/04 09:27:53;;;;;;;3.97;1.88;;;22.60;33.10;;;;;;5022159;28;20041;-75
2023/06/04 09:30:18;;;;;;;5.80;2.38;;;22.80;33.60;;;;;;5040380;28;20025;-77
2023/06/04 09:32:44;;;;;;;5.45;2.05;;;22.60;32.10;;;;;;5039756;28;20091;-75
2023/06/04 09:35:19;;;;;;;4.22;1.73;;;22.00;33.20;;;;;;5037016;28;20041;-75
2023/06/04 09:37:55;;;;;;;3.80;1.80;;;22.20;34.40;;;;;;5033784;28;20037;-75
2023/06/04 09:40:21;;;;;;;3.88;1.80;;;22.20;32.50;;;;;;5040359;28;20125;-75
2023/06/04 09:42:53;;;;;;;5.43;2.22;;;22.40;32.40;;;;;;5031750;28;20059;-75
2023/06/04 09:45:32;;;;;;;4.97;2.10;;;22.60;32.80;;;;;;5035683;28;20358;-75
2023/06/04 09:47:59;;;;;;;7.75;2.17;;;23.20;32.30;;;;;;5038040;28;20147;-75
2023/06/04 09:50:33;;;;;;;4.38;2.20;;;23.20;32.20;;;;;;5041983;28;20033;-76
2023/06/04 09:53:00;;;;;;;5.35;2.40;;;23.30;32.20;;;;;;5035360;28;20268;-76
2023/06/04 09:55:25;;;;;;;6.45;2.10;;;23.60;31.10;;;;;;5040165;28;20168;-76
2023/06/04 09:57:52;;;;;;;5.40;1.88;;;23.50;30.80;;;;;;5035416;28;20596;-75
2023/06/04 10:00:23;;;;;;;5.15;2.20;;;23.50;30.90;;;;;;5034180;28;20036;-75
2023/06/04 10:02:50;;;;;;;4.75;2.10;;;23.20;32.10;;;;;;5037507;28;20045;-76
2023/06/04 10:05:16;;;;;;;5.43;1.98;;;23.40;31.20;;;;;;5043148;28;20039;-76
2023/06/04 10:07:46;;;;;;;4.93;2.40;;;23.60;32.70;;;;;;5045448;28;20041;-76
2023/06/04 10:10:16;;;;;;;5.45;2.20;;;23.50;31.30;;;;;;5041168;28;20029;-77
2023/06/04 10:12:42;;;;;;;4.10;2.20;;;23.10;31.90;;;;;;5045951;28;20565;-76
2023/06/04 10:15:12;;;;;;;5.35;1.88;;;23.40;31.50;;;;;;5046777;28;20477;-75
2023/06/04 10:17:38;;;;;;;5.60;2.55;;;23.80;31.40;;;;;;5045347;28;20445;-76
2023/06/04 10:20:08;;;;;;;5.18;2.20;;;23.30;31.70;;;;;;5043492;28;20442;-76
2023/06/04 10:22:34;;;;;;;10.95;5.35;;;23.60;32.00;;;;;;5049228;28;20043;-76
2023/06/04 10:25:00;;;;;;;7.78;3.17;;;23.90;32.30;;;;;;5041150;28;20044;-75
2023/06/04 10:27:27;;;;;;;4.45;2.10;;;24.10;30.90;;;;;;5040608;28;20063;-77
2023/06/04 10:29:53;;;;;;;6.72;2.20;;;23.50;31.20;;;;;;5041392;28;20442;-75
2023/06/04 10:32:19;;;;;;;4.40;2.17;;;23.90;31.70;;;;;;5045134;28;20091;-75
2023/06/04 10:34:46;;;;;;;5.93;2.50;;;23.90;30.80;;;;;;5041208;28;20029;-75
2023/06/04 10:37:22;;;;;;;5.68;2.30;;;23.50;31.30;;;;;;5043673;28;20154;-75
2023/06/04 10:39:56;;;;;;;5.82;2.47;;;23.50;31.00;;;;;;5040989;28;20021;-75
2023/06/04 10:42:23;;;;;;;4.43;2.38;;;23.20;31.60;;;;;;5045496;28;20047;-76
2023/06/04 10:44:51;;;;;;;4.78;2.65;;;23.20;31.80;;;;;;5035674;28;20477;-77
2023/06/04 10:47:27;;;;;;;6.10;2.30;;;23.20;31.60;;;;;;5043403;28;20485;-77
2023/06/04 10:49:54;;;;;;;5.47;2.58;;;23.30;31.30;;;;;;5043850;28;20036;-77
2023/06/04 10:52:21;;;;;;;6.80;2.72;;;23.50;30.90;;;;;;5037948;28;20036;-76
2023/06/04 10:54:53;;;;;;;6.95;2.63;;;23.40;31.70;;;;;;5043914;28;20373;-77
2023/06/04 10:57:19;;;;;;;5.30;2.60;;;23.30;30.70;;;;;;5042678;28;20029;-75
2023/06/04 10:59:55;;;;;;;6.15;2.65;;;23.80;31.40;;;;;;5044201;28;20508;-76
2023/06/04 11:02:21;;;;;;;6.60;2.20;;;24.10;31.00;;;;;;5039389;28;20033;-77
2023/06/04 11:04:47;;;;;;;6.82;2.33;;;24.40;30.70;;;;;;5033199;28;20032;-77
2023/06/04 11:07:13;;;;;;;7.70;3.40;;;24.40;30.10;;;;;;5042056;28;20102;-76
2023/06/04 11:09:48;;;;;;;6.97;3.00;;;24.10;30.70;;;;;;5042774;28;20029;-76
2023/06/04 11:12:14;;;;;;;7.13;2.20;;;24.50;31.10;;;;;;5038197;28;20045;-78
2023/06/04 11:14:40;;;;;;;7.05;2.90;;;24.60;30.40;;;;;;5041613;28;20020;-76
2023/06/04 11:17:12;;;;;;;5.95;2.72;;;24.80;29.20;;;;;;5039417;28;20350;-75
2023/06/04 11:19:38;;;;;;;6.45;2.70;;;24.50;29.10;;;;;;5044455;28;20021;-75
2023/06/04 11:22:05;;;;;;;7.88;2.60;;;24.30;30.40;;;;;;5043391;28;20319;-77
2023/06/04 11:24:31;;;;;;;4.32;2.25;;;24.60;30.80;;;;;;5035869;28;20558;-77
2023/06/04 11:27:02;;;;;;;6.70;2.47;;;24.50;29.80;;;;;;5032432;28;20497;-74
2023/06/04 11:29:28;;;;;;;5.90;3.10;;;24.80;30.20;;;;;;5041179;28;20520;-74
2023/06/04 11:31:54;;;;;;;5.72;3.42;;;24.60;29.10;;;;;;5038832;28;20021;-74
2023/06/04 11:34:28;;;;;;;6.70;3.15;;;24.60;30.40;;;;;;5041462;28;20076;-75
2023/06/04 11:36:54;;;;;;;5.95;2.97;;;24.50;29.60;;;;;;5041790;28;20117;-74
2023/06/04 11:39:23;;;;;;;6.15;2.50;;;24.80;29.70;;;;;;5039632;28;20044;-74
2023/06/04 11:41:52;;;;;;;6.10;2.55;;;24.60;30.10;;;;;;5037052;28;20037;-74
2023/06/04 11:44:19;;;;;;;6.65;2.45;;;24.60;29.90;;;;;;5040024;28;20028;-74
2023/06/04 11:46:45;;;;;;;5.03;2.42;;;24.80;29.70;;;;;;5041612;28;20040;-72
2023/06/04 11:49:18;;;;;;;4.93;2.20;;;25.10;29.00;;;;;;5041819;28;20044;-75
2023/06/04 11:51:52;;;;;;;6.78;2.08;;;24.60;28.40;;;;;;5040992;28;20473;-74
2023/06/04 11:54:19;;;;;;;5.57;2.38;;;24.20;28.80;;;;;;5043074;28;20544;-75
2023/06/04 11:56:48;;;;;;;5.05;2.35;;;24.40;29.90;;;;;;5043728;28;20041;-74
2023/06/04 11:59:16;;;;;;;5.13;2.17;;;24.30;29.50;;;;;;5032256;28;20025;-74
2023/06/04 12:01:46;;;;;;;4.82;2.22;;;24.70;29.50;;;;;;5034222;28;20033;-74
2023/06/04 12:04:19;;;;;;;5.00;2.17;;;24.40;29.20;;;;;;5045357;28;20032;-75
2023/06/04 12:06:59;;;;;;;5.93;2.45;;;24.40;29.60;;;;;;5042580;28;20041;-77
2023/06/04 12:09:27;;;;;;;5.63;2.20;;;24.40;28.60;;;;;;5040473;28;20017;-77
2023/06/04 12:12:00;;;;;;;7.22;2.63;;;24.10;28.80;;;;;;5033341;28;20033;-76
2023/06/04 12:14:27;;;;;;;6.05;2.05;;;24.20;28.90;;;;;;5040793;28;20021;-77
2023/06/04 12:17:06;;;;;;;5.53;2.10;;;23.80;28.80;;;;;;5041793;28;20384;-77
2023/06/04 12:19:33;;;;;;;5.90;1.90;;;23.90;29.40;;;;;;5040404;28;20536;-77
2023/06/04 12:22:06;;;;;;;6.75;2.13;;;24.10;29.80;;;;;;5042250;28;20035;-77
2023/06/04 12:24:35;;;;;;;8.70;2.20;;;24.40;29.30;;;;;;5043791;28;20032;-76
2023/06/04 12:27:08;;;;;;;6.70;2.40;;;24.40;29.50;;;;;;5041050;28;20393;-76
2023/06/04 12:29:33;;;;;;;8.05;2.40;;;24.50;29.40;;;;;;5038669;28;20033;-76
2023/06/04 12:32:13;;;;;;;5.93;2.50;;;24.80;29.80;;;;;;5040117;28;20525;-76
2023/06/04 12:34:40;;;;;;;6.95;2.30;;;24.80;30.00;;;;;;5033406;28;20544;-77
2023/06/04 12:37:07;;;;;;;5.03;2.22;;;25.30;28.90;;;;;;5036831;28;20133;-75
2023/06/04 12:39:34;;;;;;;6.25;1.98;;;25.30;30.20;;;;;;5034850;28;20461;-76
2023/06/04 12:42:00;;;;;;;5.93;2.58;;;25.10;31.80;;;;;;5038946;28;20029;-75
2023/06/04 12:44:25;;;;;;;5.82;2.20;;;25.10;31.70;;;;;;5035507;28;20083;-75
2023/06/04 12:46:51;;;;;;;4.38;2.20;;;25.20;31.30;;;;;;5033498;28;20041;-75